Terminal Aerodrome Forecast
Issued by NWS Huntsville, AL

Current Version | Previous Version | Text Only | Print | Product List | Glossary On
Versions: 1 2 3 4 5 6 7 8 9 10 11 12 13 14 15 16 17 18 19 20 21
000
FTUS44 KHUN 272336
TAFMSL
TAF
KMSL 272336Z 2800/2824 15008KT 5SM -RA BR OVC025
     FM280300 16006KT 4SM RA BR BKN008 OVC015
     FM281400 34008KT 5SM -RA BR BKN008 OVC015=

USA.gov is the U.S. government's official web portal to all federal, state and local government web resources and services.